createdAt,value
2024-03-15T00:01:46.226Z,6.50
2024-03-15T00:04:13.770Z,6.37
2024-03-15T00:06:41.437Z,6.43
2024-03-15T00:09:09.000Z,8.90
2024-03-15T00:11:37.319Z,8.18
2024-03-15T00:14:04.919Z,7.53
2024-03-15T00:16:33.264Z,9.07
2024-03-15T00:19:00.950Z,9.03
2024-03-15T00:21:29.271Z,11.37
2024-03-15T00:23:57.581Z,8.57
2024-03-15T00:26:25.164Z,7.77
2024-03-15T00:28:53.556Z,8.43
2024-03-15T00:31:21.133Z,12.03
2024-03-15T00:33:48.753Z,10.87
2024-03-15T00:36:16.333Z,12.30
2024-03-15T00:38:44.686Z,14.38
2024-03-15T00:41:13.148Z,14.60
2024-03-15T00:43:40.756Z,16.27
2024-03-15T00:46:08.356Z,10.82
2024-03-15T00:48:35.966Z,6.73
2024-03-15T00:51:03.552Z,6.80
2024-03-15T00:53:31.921Z,7.27
2024-03-15T00:55:59.440Z,7.10
2024-03-15T00:58:27.045Z,7.73
2024-03-15T01:00:54.685Z,12.80
2024-03-15T01:03:22.272Z,6.57
2024-03-15T01:05:49.800Z,7.67
2024-03-15T01:08:18.137Z,8.27
2024-03-15T01:10:45.766Z,7.53
2024-03-15T01:13:14.107Z,7.43
2024-03-15T01:15:41.720Z,7.93
2024-03-15T01:18:12.837Z,12.87
2024-03-15T01:20:40.372Z,8.53
2024-03-15T01:23:08.729Z,7.90
2024-03-15T01:25:36.313Z,6.20
2024-03-15T01:28:06.647Z,10.17
2024-03-15T01:30:34.261Z,8.67
2024-03-15T01:33:01.863Z,12.33
2024-03-15T01:35:35.679Z,5.80
2024-03-15T01:38:03.255Z,7.23
2024-03-15T01:40:30.855Z,7.37
2024-03-15T01:42:58.437Z,7.13
2024-03-15T01:45:26.841Z,6.93
2024-03-15T01:47:54.434Z,6.10
2024-03-15T01:50:22.735Z,8.38
2024-03-15T01:52:50.323Z,6.87
2024-03-15T01:55:18.749Z,6.00
2024-03-15T01:57:46.456Z,8.27
2024-03-15T02:00:13.950Z,7.80
2024-03-15T02:02:41.518Z,8.93
2024-03-15T02:05:09.137Z,9.30
2024-03-15T02:07:36.741Z,8.07
2024-03-15T02:10:13.608Z,8.33
2024-03-15T02:12:41.175Z,6.10
2024-03-15T02:15:08.715Z,8.32
2024-03-15T02:17:40.196Z,6.53
2024-03-15T02:20:08.066Z,7.13
2024-03-15T02:22:35.483Z,11.30
2024-03-15T02:25:03.082Z,6.97
2024-03-15T02:27:30.661Z,7.23
2024-03-15T02:29:58.228Z,6.53
2024-03-15T02:32:25.897Z,10.77
2024-03-15T02:34:53.488Z,10.23
2024-03-15T02:37:21.003Z,5.93
2024-03-15T02:39:48.661Z,8.25
2024-03-15T02:42:16.247Z,8.15
2024-03-15T02:44:43.792Z,8.20
2024-03-15T02:47:12.169Z,8.43
2024-03-15T02:49:39.747Z,7.83
2024-03-15T02:52:08.102Z,6.90
2024-03-15T02:54:35.837Z,6.67
2024-03-15T02:57:03.373Z,5.83
2024-03-15T02:59:30.959Z,5.70
2024-03-15T03:01:58.562Z,7.07
2024-03-15T03:04:26.945Z,8.33
2024-03-15T03:06:55.384Z,7.90
2024-03-15T03:09:23.704Z,8.83
2024-03-15T03:11:52.019Z,7.77
2024-03-15T03:14:19.597Z,10.30
2024-03-15T03:16:47.223Z,8.53
2024-03-15T03:19:14.784Z,7.37
2024-03-15T03:21:42.381Z,11.47
2024-03-15T03:24:09.984Z,8.10
2024-03-15T03:26:38.325Z,14.73
2024-03-15T03:29:05.909Z,9.47
2024-03-15T03:31:34.326Z,10.75
2024-03-15T03:34:02.041Z,12.57
2024-03-15T03:36:29.530Z,8.93
2024-03-15T03:38:57.087Z,9.20
2024-03-15T03:41:24.650Z,9.45
2024-03-15T03:43:52.246Z,10.53
2024-03-15T03:46:19.847Z,9.13
2024-03-15T03:48:47.636Z,9.70
2024-03-15T03:51:16.002Z,10.20
2024-03-15T03:53:43.601Z,7.83
2024-03-15T03:56:11.191Z,7.63
2024-03-15T03:58:38.764Z,9.00
2024-03-15T04:01:07.281Z,6.20
2024-03-15T04:03:35.639Z,6.53
2024-03-15T04:06:03.136Z,8.10
2024-03-15T04:08:30.744Z,7.20
2024-03-15T04:10:58.308Z,8.37
2024-03-15T04:13:26.649Z,6.60
2024-03-15T04:15:54.303Z,6.47
2024-03-15T04:18:21.961Z,8.10
2024-03-15T04:20:49.523Z,5.73
2024-03-15T04:23:17.134Z,5.00
2024-03-15T04:25:45.512Z,6.63
2024-03-15T04:28:13.068Z,6.17
2024-03-15T04:30:40.683Z,6.77
2024-03-15T04:33:08.407Z,5.73
2024-03-15T04:35:35.856Z,8.43
2024-03-15T04:38:04.269Z,7.20
2024-03-15T04:40:31.846Z,7.43
2024-03-15T04:42:59.424Z,6.47
2024-03-15T04:45:27.196Z,6.80
2024-03-15T04:47:54.699Z,5.33
2024-03-15T04:50:22.198Z,8.67
2024-03-15T04:52:49.822Z,8.13
2024-03-15T04:55:17.403Z,6.57
2024-03-15T04:57:45.036Z,7.77
2024-03-15T05:00:22.791Z,8.07
2024-03-15T05:02:52.769Z,6.20
2024-03-15T05:05:19.979Z,6.33
2024-03-15T05:07:47.164Z,7.03
2024-03-15T05:10:14.825Z,7.40
2024-03-15T05:12:45.751Z,5.67
2024-03-15T05:15:13.267Z,6.87
2024-03-15T05:17:41.673Z,9.80
2024-03-15T05:20:11.874Z,6.80
2024-03-15T05:22:39.352Z,8.50
2024-03-15T05:25:10.225Z,5.93
2024-03-15T05:27:37.787Z,9.07
2024-03-15T05:30:05.442Z,9.87
2024-03-15T05:32:33.940Z,7.47
2024-03-15T05:35:01.612Z,6.23
2024-03-15T05:37:29.962Z,7.12
2024-03-15T05:39:58.096Z,9.23
2024-03-15T05:42:25.682Z,6.37
2024-03-15T05:44:54.037Z,6.90
2024-03-15T05:47:23.394Z,8.57
2024-03-15T05:49:49.970Z,11.30
2024-03-15T05:52:18.345Z,8.35
2024-03-15T05:54:46.848Z,7.17
2024-03-15T05:57:14.317Z,6.93
2024-03-15T05:59:42.686Z,7.20
2024-03-15T06:02:11.090Z,5.70
2024-03-15T06:04:38.666Z,4.93
2024-03-15T06:07:06.275Z,7.00
2024-03-15T06:09:33.923Z,6.63
2024-03-15T06:12:01.488Z,4.60
2024-03-15T06:14:29.031Z,7.27
2024-03-15T06:16:56.605Z,4.63
2024-03-15T06:19:24.963Z,6.97
2024-03-15T06:21:52.661Z,5.27
2024-03-15T06:24:20.203Z,7.33
2024-03-15T06:26:47.739Z,4.80
2024-03-15T06:29:15.371Z,7.27
2024-03-15T06:32:01.680Z,5.67
2024-03-15T06:34:29.993Z,5.00
2024-03-15T06:36:58.353Z,4.33
2024-03-15T06:39:26.041Z,4.63
2024-03-15T06:41:54.321Z,6.13
2024-03-15T06:44:21.973Z,8.13
2024-03-15T06:47:07.814Z,4.87
2024-03-15T06:49:35.494Z,4.40
2024-03-15T06:52:22.971Z,7.00
2024-03-15T06:54:49.019Z,8.73
2024-03-15T06:57:17.361Z,7.60
2024-03-15T06:59:44.951Z,8.73
2024-03-15T07:02:12.590Z,7.67
2024-03-15T07:04:40.127Z,6.03
2024-03-15T07:07:08.512Z,7.22
2024-03-15T07:09:36.948Z,9.30
2024-03-15T07:12:04.488Z,7.37
2024-03-15T07:14:32.078Z,5.30
2024-03-15T07:16:59.693Z,5.57
2024-03-15T07:19:28.256Z,6.33
2024-03-15T07:21:55.717Z,4.73
2024-03-15T07:24:23.225Z,5.63
2024-03-15T07:26:50.787Z,5.43
2024-03-15T07:29:18.398Z,5.70
2024-03-15T07:31:45.970Z,5.10
2024-03-15T07:34:16.502Z,5.90
2024-03-15T07:36:44.868Z,6.80
2024-03-15T07:39:13.252Z,3.80
2024-03-15T07:41:40.798Z,4.00
2024-03-15T07:44:08.420Z,6.50
2024-03-15T07:46:36.005Z,4.60
2024-03-15T07:49:04.368Z,4.00
2024-03-15T07:51:32.005Z,4.27
2024-03-15T07:53:59.564Z,5.85
2024-03-15T07:56:27.161Z,2.33
2024-03-15T07:58:54.955Z,4.17
2024-03-15T08:01:22.636Z,2.73
2024-03-15T08:03:50.030Z,2.67
2024-03-15T08:06:18.372Z,2.07
2024-03-15T08:08:46.681Z,3.30
2024-03-15T08:11:14.289Z,3.03
2024-03-15T08:13:42.656Z,3.00
2024-03-15T08:16:10.307Z,3.00
2024-03-15T08:18:37.932Z,2.10
2024-03-15T08:21:05.440Z,2.43
2024-03-15T08:23:33.038Z,1.70
2024-03-15T08:26:00.643Z,2.43
2024-03-15T08:28:28.346Z,3.27
2024-03-15T08:30:55.867Z,3.20
2024-03-15T08:33:23.593Z,2.17
2024-03-15T08:35:51.828Z,2.45
2024-03-15T08:38:20.258Z,3.63
2024-03-15T08:40:47.927Z,2.53
2024-03-15T08:43:15.548Z,2.25
2024-03-15T08:45:43.886Z,2.97
2024-03-15T08:48:11.539Z,2.10
2024-03-15T08:50:39.803Z,2.43
2024-03-15T08:53:08.182Z,2.03
2024-03-15T08:55:35.755Z,1.87
2024-03-15T08:58:04.217Z,3.08
2024-03-15T09:00:31.812Z,2.40
2024-03-15T09:02:59.415Z,2.63
2024-03-15T09:05:26.913Z,3.43
2024-03-15T09:07:55.365Z,2.90
2024-03-15T09:10:22.923Z,3.20
2024-03-15T09:12:50.641Z,3.50
2024-03-15T09:15:18.193Z,4.63
2024-03-15T09:17:46.624Z,4.27
2024-03-15T09:20:19.763Z,3.30
2024-03-15T09:22:50.701Z,3.70
2024-03-15T09:25:20.734Z,3.10
2024-03-15T09:27:48.370Z,4.07
2024-03-15T09:30:18.877Z,3.83
2024-03-15T09:32:47.206Z,2.83
2024-03-15T09:35:14.873Z,4.20
2024-03-15T09:37:54.168Z,3.83
2024-03-15T09:40:22.739Z,3.73
2024-03-15T09:42:50.983Z,3.13
2024-03-15T09:45:18.489Z,3.53
2024-03-15T09:47:46.966Z,4.37
2024-03-15T09:50:15.236Z,2.90
2024-03-15T09:52:46.307Z,4.07
2024-03-15T09:55:13.971Z,4.03
2024-03-15T09:57:41.505Z,4.53
2024-03-15T10:00:13.045Z,5.05
2024-03-15T10:02:40.632Z,3.07
2024-03-15T10:05:08.294Z,3.97
2024-03-15T10:07:35.917Z,3.60
2024-03-15T10:10:06.919Z,5.77
2024-03-15T10:12:37.261Z,3.50
2024-03-15T10:15:05.581Z,3.77
2024-03-15T10:17:37.393Z,4.33
2024-03-15T10:20:04.804Z,3.60
2024-03-15T10:22:32.384Z,4.53
2024-03-15T10:25:00.087Z,5.30
2024-03-15T10:27:27.672Z,3.30
2024-03-15T10:29:55.924Z,3.70
2024-03-15T10:32:23.577Z,3.23
2024-03-15T10:34:51.142Z,5.17
2024-03-15T10:37:18.703Z,2.17
2024-03-15T10:39:46.366Z,3.67
2024-03-15T10:42:13.993Z,4.40
2024-03-15T10:44:42.299Z,2.42
2024-03-15T10:47:09.915Z,5.07
2024-03-15T10:49:37.647Z,2.93
2024-03-15T10:52:05.454Z,3.07
2024-03-15T10:54:32.821Z,3.37
2024-03-15T10:57:00.405Z,3.93
2024-03-15T10:59:27.949Z,5.60
2024-03-15T11:01:55.727Z,3.00
2024-03-15T11:04:23.354Z,5.32
2024-03-15T11:06:50.916Z,3.80
2024-03-15T11:09:22.297Z,3.62
2024-03-15T11:12:02.261Z,4.03
2024-03-15T11:14:35.719Z,2.73
2024-03-15T11:17:03.216Z,5.03
2024-03-15T11:19:31.635Z,5.13
2024-03-15T11:22:07.967Z,3.93
2024-03-15T11:24:41.516Z,3.57
2024-03-15T11:27:15.604Z,5.93
2024-03-15T11:29:46.776Z,3.87
2024-03-15T11:32:14.325Z,5.70
2024-03-15T11:34:44.511Z,5.22
2024-03-15T11:37:15.717Z,4.50
2024-03-15T11:39:42.520Z,6.43
2024-03-15T11:42:10.090Z,5.10
2024-03-15T11:44:37.720Z,2.63
2024-03-15T11:47:05.296Z,3.37
2024-03-15T11:49:32.920Z,3.23
2024-03-15T11:52:00.716Z,1.93
2024-03-15T11:54:28.187Z,1.80
2024-03-15T11:56:59.069Z,2.30
2024-03-15T11:59:26.643Z,6.93
2024-03-15T12:01:55.100Z,4.75
2024-03-15T12:04:22.683Z,4.50
2024-03-15T12:06:50.284Z,3.33
2024-03-15T12:09:17.844Z,7.90
2024-03-15T12:11:46.338Z,5.72
2024-03-15T12:14:14.566Z,4.93
2024-03-15T12:16:45.171Z,3.53
2024-03-15T12:19:15.619Z,3.67
2024-03-15T12:21:43.269Z,9.20
2024-03-15T12:24:10.759Z,5.93
2024-03-15T12:26:38.409Z,3.57
2024-03-15T12:29:06.038Z,3.40
2024-03-15T12:31:33.616Z,4.03
2024-03-15T12:34:02.206Z,5.53
2024-03-15T12:36:29.793Z,3.20
2024-03-15T12:38:57.316Z,2.80
2024-03-15T12:41:25.704Z,5.40
2024-03-15T12:43:54.051Z,4.40
2024-03-15T12:46:21.634Z,6.60
2024-03-15T12:48:51.956Z,3.37
2024-03-15T12:51:17.647Z,3.90
2024-03-15T12:53:45.954Z,2.73
2024-03-15T12:56:14.339Z,4.93
2024-03-15T12:58:42.725Z,4.80
2024-03-15T13:01:10.415Z,2.47
2024-03-15T13:03:37.973Z,4.47
2024-03-15T13:06:06.284Z,2.43
2024-03-15T13:08:33.860Z,4.17
2024-03-15T13:11:01.485Z,6.70
2024-03-15T13:13:29.028Z,5.60
2024-03-15T13:15:56.623Z,4.50
2024-03-15T13:18:24.318Z,2.00
2024-03-15T13:20:54.043Z,4.65
2024-03-15T13:23:19.425Z,4.20
2024-03-15T13:25:47.026Z,3.03
2024-03-15T13:28:14.611Z,4.13
2024-03-15T13:30:42.269Z,6.27
2024-03-15T13:33:10.560Z,4.47
2024-03-15T13:35:37.519Z,3.73
2024-03-15T13:38:05.121Z,6.03
2024-03-15T13:40:32.728Z,3.50
2024-03-15T13:43:00.839Z,4.67
2024-03-15T13:45:27.945Z,3.60
2024-03-15T13:47:56.186Z,4.83
2024-03-15T13:50:23.150Z,2.70
2024-03-15T13:52:50.687Z,3.20
2024-03-15T13:55:18.315Z,3.00
2024-03-15T13:57:48.908Z,3.43
2024-03-15T14:00:34.858Z,6.05
2024-03-15T14:03:04.976Z,3.17
2024-03-15T14:05:38.968Z,4.77
2024-03-15T14:08:22.576Z,5.70
2024-03-15T14:10:50.260Z,4.80
2024-03-15T14:13:21.855Z,5.53
2024-03-15T14:15:49.810Z,3.63
2024-03-15T14:18:18.984Z,6.13
2024-03-15T14:20:46.433Z,4.23
2024-03-15T14:23:14.018Z,6.37
2024-03-15T14:25:42.343Z,3.67
2024-03-15T14:28:10.013Z,6.77
2024-03-15T14:30:38.686Z,6.87
2024-03-15T14:33:05.436Z,8.15
2024-03-15T14:35:33.013Z,6.07
2024-03-15T14:38:00.608Z,4.43
2024-03-15T14:40:29.668Z,3.93
2024-03-15T14:42:57.409Z,3.80
2024-03-15T14:45:24.993Z,5.97
2024-03-15T14:47:53.256Z,4.63
2024-03-15T14:50:20.802Z,6.12
2024-03-15T14:52:48.430Z,7.13
2024-03-15T14:55:16.711Z,5.73
2024-03-15T14:57:45.060Z,3.70
2024-03-15T15:00:15.453Z,5.50
2024-03-15T15:02:43.038Z,5.55
2024-03-15T15:05:14.041Z,4.57
2024-03-15T15:07:41.634Z,7.87
2024-03-15T15:10:11.867Z,3.97
2024-03-15T15:12:43.192Z,4.00
2024-03-15T15:15:16.809Z,4.45
2024-03-15T15:17:42.068Z,6.50
2024-03-15T15:20:12.488Z,3.67
2024-03-15T15:22:40.106Z,5.10
2024-03-15T15:25:11.654Z,5.30
2024-03-15T15:27:38.812Z,4.53
2024-03-15T15:30:06.590Z,8.97
2024-03-15T15:32:35.088Z,6.53
2024-03-15T15:35:02.539Z,3.17
2024-03-15T15:37:30.943Z,7.53
2024-03-15T15:39:58.572Z,3.90
2024-03-15T15:42:26.103Z,4.70
2024-03-15T15:44:53.694Z,5.63
2024-03-15T15:47:21.483Z,5.83
2024-03-15T15:49:49.085Z,5.17
2024-03-15T15:52:16.709Z,9.50
2024-03-15T15:54:44.319Z,5.60
2024-03-15T15:57:11.835Z,4.63
2024-03-15T15:59:39.502Z,5.27
2024-03-15T16:02:07.106Z,4.97
2024-03-15T16:04:34.690Z,8.80
2024-03-15T16:07:02.271Z,7.67
2024-03-15T16:09:29.868Z,7.27
2024-03-15T16:11:57.528Z,10.20
2024-03-15T16:14:25.171Z,4.43
2024-03-15T16:16:52.818Z,5.23
2024-03-15T16:19:21.796Z,5.82
2024-03-15T16:21:49.433Z,4.50
2024-03-15T16:24:19.252Z,6.83
2024-03-15T16:26:47.578Z,9.47
2024-03-15T16:29:15.184Z,4.83
2024-03-15T16:31:42.772Z,6.68
2024-03-15T16:34:10.641Z,6.33
2024-03-15T16:36:38.198Z,5.63
2024-03-15T16:39:05.815Z,4.67
2024-03-15T16:41:33.349Z,5.90
2024-03-15T16:44:00.939Z,8.83
2024-03-15T16:46:28.538Z,5.90
2024-03-15T16:48:57.365Z,7.10
2024-03-15T16:51:25.071Z,3.53
2024-03-15T16:53:52.533Z,5.97
2024-03-15T16:56:20.134Z,8.90
2024-03-15T16:58:50.418Z,7.40
2024-03-15T17:01:18.066Z,4.37
2024-03-15T17:03:45.600Z,5.17
2024-03-15T17:06:14.372Z,5.65
2024-03-15T17:08:42.781Z,6.33
2024-03-15T17:11:10.357Z,5.03
2024-03-15T17:13:38.725Z,2.97
2024-03-15T17:16:06.374Z,4.57
2024-03-15T17:18:34.781Z,6.40
2024-03-15T17:21:02.378Z,4.80
2024-03-15T17:23:30.217Z,4.57
2024-03-15T17:25:57.802Z,8.77
2024-03-15T17:28:25.445Z,4.67
2024-03-15T17:30:53.095Z,2.30
2024-03-15T17:33:20.633Z,2.23
2024-03-15T17:35:49.006Z,5.67
2024-03-15T17:38:16.688Z,3.15
2024-03-15T17:40:44.260Z,2.07
2024-03-15T17:43:11.920Z,4.33
2024-03-15T17:45:39.475Z,2.55
2024-03-15T17:48:07.084Z,2.40
2024-03-15T17:50:34.685Z,1.83
2024-03-15T17:53:02.267Z,3.37
2024-03-15T17:55:29.832Z,1.13
2024-03-15T17:57:57.648Z,1.37
2024-03-15T18:00:25.070Z,2.47
2024-03-15T18:02:52.608Z,11.60
2024-03-15T18:05:20.213Z,9.37
2024-03-15T18:07:47.793Z,1.83
2024-03-15T18:10:15.449Z,2.37
2024-03-15T18:12:43.036Z,0.73
2024-03-15T18:15:10.547Z,0.90
2024-03-15T18:17:39.057Z,1.10
2024-03-15T18:20:06.502Z,1.40
2024-03-15T18:22:34.080Z,1.33
2024-03-15T18:25:01.850Z,3.07
2024-03-15T18:27:29.295Z,3.17
2024-03-15T18:29:56.851Z,3.05
2024-03-15T18:32:24.456Z,2.63
2024-03-15T18:34:52.093Z,2.73
2024-03-15T18:37:19.703Z,2.10
2024-03-15T18:39:48.098Z,4.50
2024-03-15T18:42:16.032Z,2.90
2024-03-15T18:44:44.277Z,2.47
2024-03-15T18:47:11.864Z,7.17
2024-03-15T18:49:39.466Z,7.77
2024-03-15T18:52:07.129Z,7.72
2024-03-15T18:54:34.623Z,3.70
2024-03-15T18:57:02.218Z,2.30
2024-03-15T18:59:32.499Z,1.70
2024-03-15T19:02:00.134Z,1.83
2024-03-15T19:04:27.688Z,2.80
2024-03-15T19:06:55.333Z,3.62
2024-03-15T19:09:22.888Z,3.67
2024-03-15T19:11:50.486Z,3.70
2024-03-15T19:14:18.134Z,4.00
2024-03-15T19:16:45.656Z,3.80
2024-03-15T19:19:14.103Z,4.87
2024-03-15T19:21:41.667Z,2.50
2024-03-15T19:24:09.951Z,3.90
2024-03-15T19:26:37.554Z,3.37
2024-03-15T19:29:05.142Z,2.12
2024-03-15T19:31:32.725Z,2.17
2024-03-15T19:34:00.409Z,5.27
2024-03-15T19:36:27.961Z,5.77
2024-03-15T19:38:55.536Z,3.40
2024-03-15T19:41:23.933Z,5.77
2024-03-15T19:43:51.570Z,7.07
2024-03-15T19:46:20.659Z,5.60
2024-03-15T19:48:48.391Z,5.07
2024-03-15T19:51:15.855Z,4.32
2024-03-15T19:53:43.452Z,6.05
2024-03-15T19:56:11.100Z,4.40
2024-03-15T19:58:38.665Z,2.33
2024-03-15T20:01:07.199Z,6.50
2024-03-15T20:03:35.474Z,4.63
2024-03-15T20:06:03.187Z,6.23
2024-03-15T20:08:30.767Z,6.93
2024-03-15T20:10:58.432Z,4.47
2024-03-15T20:13:25.973Z,4.33
2024-03-15T20:15:54.351Z,7.25
2024-03-15T20:18:21.999Z,6.90
2024-03-15T20:20:49.532Z,5.93
2024-03-15T20:23:17.120Z,5.93
2024-03-15T20:25:44.719Z,4.23
2024-03-15T20:28:12.415Z,9.80
2024-03-15T20:30:40.755Z,5.97
2024-03-15T20:33:08.370Z,7.33
2024-03-15T20:35:35.921Z,7.62
2024-03-15T20:38:03.520Z,11.47
2024-03-15T20:40:31.871Z,9.43
2024-03-15T20:42:59.535Z,7.07
2024-03-15T20:45:27.848Z,7.37
2024-03-15T20:47:55.457Z,8.23
2024-03-15T20:50:23.030Z,12.53
2024-03-15T20:52:50.622Z,9.77
2024-03-15T20:55:19.027Z,6.40
2024-03-15T20:57:46.653Z,12.40
2024-03-15T21:00:14.408Z,8.83
2024-03-15T21:02:41.909Z,7.40
2024-03-15T21:05:11.924Z,7.37
2024-03-15T21:07:42.200Z,8.60
2024-03-15T21:10:09.957Z,8.70
2024-03-15T21:12:37.449Z,12.57
2024-03-15T21:15:05.897Z,12.68
2024-03-15T21:17:33.537Z,8.90
2024-03-15T21:20:01.072Z,9.83
2024-03-15T21:22:28.661Z,11.13
2024-03-15T21:24:56.340Z,8.38
2024-03-15T21:27:23.951Z,8.07
2024-03-15T21:29:51.464Z,7.47
2024-03-15T21:32:19.075Z,9.30
2024-03-15T21:34:46.675Z,8.57
2024-03-15T21:37:14.256Z,7.40
2024-03-15T21:39:42.650Z,12.05
2024-03-15T21:42:10.978Z,9.47
2024-03-15T21:44:38.576Z,7.33
2024-03-15T21:47:06.937Z,9.88
2024-03-15T21:49:34.743Z,8.37
2024-03-15T21:52:03.171Z,6.00
2024-03-15T21:54:30.685Z,7.53
2024-03-15T21:56:58.241Z,8.02
2024-03-15T21:59:25.825Z,10.13
2024-03-15T22:01:53.533Z,9.67
2024-03-15T22:04:21.041Z,9.87
2024-03-15T22:06:48.876Z,7.97
2024-03-15T22:09:19.161Z,4.50
2024-03-15T22:11:44.506Z,4.55
2024-03-15T22:14:12.113Z,7.83
2024-03-15T22:16:39.761Z,3.65
2024-03-15T22:19:07.388Z,5.05
2024-03-15T22:21:34.940Z,4.97
2024-03-15T22:24:02.528Z,3.47
2024-03-15T22:26:30.111Z,4.50
2024-03-15T22:28:57.682Z,3.47
2024-03-15T22:31:25.331Z,4.03
2024-03-15T22:33:53.194Z,3.37
2024-03-15T22:36:20.754Z,3.13
2024-03-15T22:38:48.419Z,4.67
2024-03-15T22:41:16.190Z,3.55
2024-03-15T22:43:43.757Z,4.27
2024-03-15T22:46:11.438Z,3.37
2024-03-15T22:48:40.500Z,3.60
2024-03-15T22:51:08.251Z,3.03
2024-03-15T22:53:35.846Z,3.67
2024-03-15T22:56:03.432Z,3.57
2024-03-15T22:58:31.781Z,6.17
2024-03-15T23:00:59.649Z,3.57
2024-03-15T23:03:27.270Z,4.93
2024-03-15T23:05:54.829Z,6.80
2024-03-15T23:08:22.931Z,3.70
2024-03-15T23:10:50.544Z,4.53
2024-03-15T23:13:18.125Z,3.47
2024-03-15T23:15:46.683Z,2.03
2024-03-15T23:18:14.527Z,4.33
2024-03-15T23:20:42.349Z,3.50
2024-03-15T23:23:09.990Z,2.90
2024-03-15T23:25:37.658Z,4.47
2024-03-15T23:28:05.353Z,2.87
2024-03-15T23:30:33.009Z,2.67
2024-03-15T23:33:01.323Z,4.10
2024-03-15T23:35:28.874Z,2.10
2024-03-15T23:37:57.246Z,4.30
2024-03-15T23:40:25.668Z,2.53
2024-03-15T23:42:53.249Z,5.40
2024-03-15T23:45:20.849Z,3.30
2024-03-15T23:47:49.279Z,5.53
2024-03-15T23:50:16.787Z,3.13
2024-03-15T23:52:44.392Z,4.97
2024-03-15T23:55:12.050Z,4.40
2024-03-15T23:57:39.769Z,2.57
